Time;durP1;ratioP1;P1;durP2;ratioP2;P2;SDS_P1;SDS_P2;PMS_P1;PMS_P2;Temp;Humidity;BMP_temperature;BMP_pressure;BME280_temperature;BME280_humidity;BME280_pressure;Samples;Min_cycle;Max_cycle;Signal;HPM_P1;HPM_P2
2023/03/31 00:01:27;;;;;;;4.90;1.90;;;;;;;;;;5056195;28;20040;-81
2023/03/31 00:04:03;;;;;;;4.90;1.55;;;;;;;;;;5072998;28;20035;-81
2023/03/31 00:06:31;;;;;;;5.47;2.05;;;;;;;;;;5074649;28;20116;-81
2023/03/31 00:09:00;;;;;;;5.45;1.63;;;;;;;;;;5073003;28;20025;-82
2023/03/31 00:11:26;;;;;;;4.57;1.60;;;;;;;;;;5073112;28;20029;-82
2023/03/31 00:13:52;;;;;;;4.40;1.75;;;;;;;;;;5072936;28;20044;-82
2023/03/31 00:16:17;;;;;;;3.55;1.40;;;;;;;;;;5056125;28;20028;-82
2023/03/31 00:18:46;;;;;;;3.95;1.42;;;;;;;;;;5074180;28;20035;-81
2023/03/31 00:21:23;;;;;;;4.70;1.52;;;;;;;;;;5072715;28;20043;-82
2023/03/31 00:23:57;;;;;;;3.95;1.70;;;;;;;;;;5072818;28;20020;-83
2023/03/31 00:26:25;;;;;;;6.10;1.75;;;;;;;;;;5072630;28;20028;-82
2023/03/31 00:28:51;;;;;;;3.10;1.70;;;;;;;;;;5072628;28;20493;-82
2023/03/31 00:31:17;;;;;;;3.47;1.55;;;;;;;;;;5073907;28;20059;-81
2023/03/31 00:33:43;;;;;;;5.10;1.50;;;;;;;;;;5055908;28;20052;-82
2023/03/31 00:36:08;;;;;;;4.70;1.45;;;;;;;;;;5039055;28;20514;-81
2023/03/31 00:38:34;;;;;;;4.70;1.30;;;;;;;;;;5054829;28;20098;-81
2023/03/31 00:41:00;;;;;;;3.53;1.55;;;;;;;;;;5055825;28;20033;-81
2023/03/31 00:43:28;;;;;;;7.30;1.70;;;;;;;;;;5072547;28;20032;-81
2023/03/31 00:46:14;;;;;;;3.03;1.38;;;;;;;;;;5075562;28;20560;-81
2023/03/31 00:48:48;;;;;;;2.35;1.40;;;;;;;;;;5075734;28;20023;-81
2023/03/31 00:51:13;;;;;;;5.38;2.22;;;;;;;;;;5075523;28;20046;-81
2023/03/31 00:53:39;;;;;;;2.50;1.60;;;;;;;;;;5058666;28;20418;-81
2023/03/31 00:56:10;;;;;;;4.25;1.60;;;;;;;;;;5075377;28;20028;-81
2023/03/31 00:58:42;;;;;;;4.15;1.73;;;;;;;;;;5075735;28;20052;-82
2023/03/31 01:01:10;;;;;;;3.85;1.30;;;;;;;;;;5093385;28;20036;-82
2023/03/31 01:03:37;;;;;;;3.88;1.60;;;;;;;;;;5075448;28;20040;-82
2023/03/31 01:06:09;;;;;;;1.90;1.30;;;;;;;;;;5090009;28;20394;-81
2023/03/31 01:08:35;;;;;;;2.92;1.58;;;;;;;;;;5058421;28;20557;-81
2023/03/31 01:11:05;;;;;;;4.47;1.40;;;;;;;;;;5074913;28;20157;-81
2023/03/31 01:13:31;;;;;;;3.05;1.20;;;;;;;;;;5093112;28;20032;-81
2023/03/31 01:15:57;;;;;;;3.30;1.40;;;;;;;;;;5074882;28;20443;-82
2023/03/31 01:18:22;;;;;;;2.53;1.42;;;;;;;;;;5075744;28;20459;-82
2023/03/31 01:21:29;;;;;;;1.65;1.13;;;;;;;;;;5058531;28;20097;-81
2023/03/31 01:24:34;;;;;;;1.92;1.15;;;;;;;;;;5093279;28;20059;-81
2023/03/31 01:27:30;;;;;;;3.25;1.42;;;;;;;;;;5093349;28;20016;-80
2023/03/31 01:30:33;;;;;;;2.20;1.02;;;;;;;;;;5093437;28;20028;-81
2023/03/31 01:33:17;;;;;;;1.73;1.20;;;;;;;;;;5075032;28;20024;-80
2023/03/31 01:35:57;;;;;;;3.10;1.42;;;;;;;;;;5093121;28;20028;-80
2023/03/31 01:38:56;;;;;;;3.15;1.25;;;;;;;;;;5093724;28;20028;-80
2023/03/31 01:41:34;;;;;;;1.65;1.08;;;;;;;;;;5075395;28;20085;-81
2023/03/31 01:44:04;;;;;;;3.13;1.42;;;;;;;;;;5093386;28;20031;-81
2023/03/31 01:47:17;;;;;;;3.03;1.52;;;;;;;;;;5074905;28;20036;-80
2023/03/31 01:49:53;;;;;;;2.70;1.42;;;;;;;;;;5050369;28;20036;-80
2023/03/31 01:52:41;;;;;;;2.72;1.23;;;;;;;;;;5079440;28;20103;-80
2023/03/31 01:55:36;;;;;;;3.47;1.10;;;;;;;;;;5097163;28;20028;-79
2023/03/31 01:58:13;;;;;;;3.50;1.25;;;;;;;;;;5061953;28;20039;-80
2023/03/31 02:00:50;;;;;;;3.15;1.30;;;;;;;;;;5096924;28;20105;-80
2023/03/31 02:03:20;;;;;;;3.28;1.50;;;;;;;;;;5079360;28;20080;-80
2023/03/31 02:05:55;;;;;;;2.72;1.30;;;;;;;;;;5078749;28;20089;-81
2023/03/31 02:08:33;;;;;;;2.80;1.58;;;;;;;;;;5079241;28;20016;-81
2023/03/31 02:10:58;;;;;;;2.60;1.60;;;;;;;;;;5078540;28;20057;-82
2023/03/31 02:13:26;;;;;;;3.10;1.48;;;;;;;;;;5078670;28;20099;-82
2023/03/31 02:15:56;;;;;;;3.45;1.08;;;;;;;;;;5078720;28;20437;-81
2023/03/31 02:18:25;;;;;;;2.17;1.10;;;;;;;;;;5079361;28;20020;-81
2023/03/31 02:20:51;;;;;;;1.85;1.20;;;;;;;;;;5078332;28;20028;-81
2023/03/31 02:23:19;;;;;;;2.45;1.00;;;;;;;;;;5061470;28;20032;-82
2023/03/31 02:25:51;;;;;;;1.80;1.35;;;;;;;;;;5078761;28;20020;-82
2023/03/31 02:28:24;;;;;;;3.28;1.30;;;;;;;;;;5078307;28;20044;-82
2023/03/31 02:31:01;;;;;;;2.50;1.20;;;;;;;;;;5078435;28;20050;-81
2023/03/31 02:33:26;;;;;;;4.25;1.50;;;;;;;;;;5078250;28;20024;-80
2023/03/31 02:35:52;;;;;;;2.55;1.13;;;;;;;;;;5078098;28;20131;-82
2023/03/31 02:38:17;;;;;;;2.67;1.30;;;;;;;;;;5077964;28;20036;-81
2023/03/31 02:40:43;;;;;;;1.95;1.10;;;;;;;;;;5095955;28;20451;-82
2023/03/31 02:43:09;;;;;;;3.25;1.50;;;;;;;;;;5077947;28;20028;-81
2023/03/31 02:45:46;;;;;;;3.17;1.65;;;;;;;;;;5077520;28;20101;-82
2023/03/31 02:48:16;;;;;;;2.55;1.33;;;;;;;;;;5060944;28;20096;-82
2023/03/31 02:51:07;;;;;;;2.15;1.35;;;;;;;;;;5077684;28;20039;-82
2023/03/31 02:53:47;;;;;;;1.73;1.05;;;;;;;;;;5095712;28;20471;-82
2023/03/31 02:56:41;;;;;;;3.00;1.48;;;;;;;;;;5095730;28;20020;-81
2023/03/31 02:59:42;;;;;;;2.40;1.40;;;;;;;;;;5092585;28;20490;-81
2023/03/31 03:02:33;;;;;;;3.97;1.75;;;;;;;;;;5077557;28;20031;-82
2023/03/31 03:05:19;;;;;;;5.75;1.30;;;;;;;;;;5078470;28;20027;-83
2023/03/31 03:08:16;;;;;;;2.35;1.50;;;;;;;;;;5060843;28;20025;-83
2023/03/31 03:11:03;;;;;;;4.68;1.40;;;;;;;;;;5095405;28;20036;-82
2023/03/31 03:14:12;;;;;;;3.45;1.30;;;;;;;;;;5095494;28;20075;-82
2023/03/31 03:16:45;;;;;;;2.88;1.30;;;;;;;;;;5078056;28;20164;-82
2023/03/31 03:19:18;;;;;;;3.03;1.15;;;;;;;;;;5077758;28;20030;-83
2023/03/31 03:21:44;;;;;;;6.78;1.30;;;;;;;;;;5077553;28;20028;-82
2023/03/31 03:24:10;;;;;;;2.75;1.17;;;;;;;;;;5077323;28;20016;-82
2023/03/31 03:26:35;;;;;;;2.00;1.30;;;;;;;;;;5076997;28;20524;-82
2023/03/31 03:29:01;;;;;;;1.83;1.25;;;;;;;;;;5095193;28;20027;-82
2023/03/31 03:31:26;;;;;;;2.50;1.25;;;;;;;;;;5077617;28;20081;-82
2023/03/31 03:33:52;;;;;;;2.65;1.20;;;;;;;;;;5076664;28;20123;-81
2023/03/31 03:36:18;;;;;;;2.92;1.27;;;;;;;;;;5060351;28;20108;-82
2023/03/31 03:38:43;;;;;;;1.80;1.20;;;;;;;;;;5095177;28;20032;-82
2023/03/31 03:41:09;;;;;;;3.25;1.45;;;;;;;;;;5077074;28;20086;-82
2023/03/31 03:43:34;;;;;;;2.92;1.40;;;;;;;;;;5095239;28;20032;-82
2023/03/31 03:46:00;;;;;;;1.95;1.10;;;;;;;;;;5076730;28;20078;-82
2023/03/31 03:48:25;;;;;;;2.78;1.45;;;;;;;;;;5095066;28;20035;-82
2023/03/31 03:50:52;;;;;;;2.25;1.13;;;;;;;;;;5076762;28;20078;-82
2023/03/31 03:53:17;;;;;;;4.20;1.30;;;;;;;;;;5076479;28;20499;-82
2023/03/31 03:55:44;;;;;;;2.53;1.27;;;;;;;;;;5059850;28;20119;-82
2023/03/31 03:58:09;;;;;;;3.83;1.42;;;;;;;;;;5095023;28;20050;-80
2023/03/31 04:00:35;;;;;;;1.45;1.20;;;;;;;;;;5059871;28;20036;-81
2023/03/31 04:03:00;;;;;;;2.22;1.02;;;;;;;;;;5076350;28;20130;-82
2023/03/31 04:05:26;;;;;;;2.15;1.17;;;;;;;;;;5094756;28;20378;-81
2023/03/31 04:07:51;;;;;;;2.03;1.10;;;;;;;;;;5076659;28;20120;-82
2023/03/31 04:10:17;;;;;;;2.95;1.10;;;;;;;;;;5076296;28;20032;-82
2023/03/31 04:12:42;;;;;;;2.60;1.02;;;;;;;;;;5094167;28;20114;-82
2023/03/31 04:15:08;;;;;;;4.75;1.10;;;;;;;;;;5076256;28;20031;-82
2023/03/31 04:17:33;;;;;;;3.05;1.30;;;;;;;;;;5075888;28;20065;-80
2023/03/31 04:20:10;;;;;;;3.85;1.27;;;;;;;;;;5076211;28;20024;-82
2023/03/31 04:22:39;;;;;;;2.80;1.25;;;;;;;;;;5059555;28;20028;-81
2023/03/31 04:25:13;;;;;;;2.95;1.30;;;;;;;;;;5076758;28;20046;-81
2023/03/31 04:27:49;;;;;;;2.47;1.20;;;;;;;;;;5076899;28;20466;-80
2023/03/31 04:30:21;;;;;;;3.30;1.33;;;;;;;;;;5094344;28;20093;-81
2023/03/31 04:32:51;;;;;;;3.58;1.50;;;;;;;;;;5077892;28;20020;-82
2023/03/31 04:35:19;;;;;;;2.45;1.00;;;;;;;;;;5059923;28;20031;-80
2023/03/31 04:37:46;;;;;;;4.35;1.40;;;;;;;;;;5078029;28;20038;-83
2023/03/31 04:40:11;;;;;;;3.10;1.45;;;;;;;;;;5096384;28;20487;-83
2023/03/31 04:42:36;;;;;;;6.75;1.73;;;;;;;;;;5061028;28;20036;-79
2023/03/31 04:45:02;;;;;;;2.92;1.42;;;;;;;;;;5094916;28;20027;-82
2023/03/31 04:47:27;;;;;;;3.33;1.20;;;;;;;;;;5078651;28;20060;-79
2023/03/31 04:49:53;;;;;;;3.05;1.30;;;;;;;;;;5084375;28;20079;-84
2023/03/31 04:52:19;;;;;;;5.18;1.13;;;;;;;;;;5060329;28;20554;-83
2023/03/31 04:54:44;;;;;;;3.40;1.60;;;;;;;;;;5060673;28;20032;-81
2023/03/31 04:57:10;;;;;;;2.53;1.40;;;;;;;;;;5076260;28;20035;-83
2023/03/31 04:59:35;;;;;;;3.35;1.52;;;;;;;;;;5076226;28;20032;-82
2023/03/31 05:02:01;;;;;;;3.33;1.50;;;;;;;;;;5094575;28;20040;-85
2023/03/31 05:04:26;;;;;;;3.72;1.50;;;;;;;;;;5075705;28;20024;-82
2023/03/31 05:06:51;;;;;;;3.15;1.27;;;;;;;;;;5058738;28;20043;-81
2023/03/31 05:09:17;;;;;;;4.43;1.73;;;;;;;;;;5058678;28;20157;-82
2023/03/31 05:11:43;;;;;;;2.70;1.33;;;;;;;;;;5058604;28;20498;-82
2023/03/31 05:14:08;;;;;;;2.28;1.20;;;;;;;;;;5093679;28;20043;-82
2023/03/31 05:16:34;;;;;;;3.67;1.58;;;;;;;;;;5093852;28;20094;-81
2023/03/31 05:19:00;;;;;;;5.50;1.55;;;;;;;;;;5075769;28;20033;-82
2023/03/31 05:21:26;;;;;;;2.83;1.25;;;;;;;;;;5093401;28;20532;-82
2023/03/31 05:23:52;;;;;;;3.70;1.40;;;;;;;;;;5059732;28;20024;-82
2023/03/31 05:26:17;;;;;;;2.78;1.33;;;;;;;;;;5079422;28;20024;-83
2023/03/31 05:28:43;;;;;;;3.38;1.30;;;;;;;;;;5097370;28;20027;-82
2023/03/31 05:31:11;;;;;;;2.00;1.35;;;;;;;;;;5097652;28;20111;-82
2023/03/31 05:33:40;;;;;;;3.35;1.08;;;;;;;;;;5079816;28;20031;-81
2023/03/31 05:36:09;;;;;;;3.90;1.30;;;;;;;;;;5079810;28;20024;-82
2023/03/31 05:38:35;;;;;;;2.17;1.08;;;;;;;;;;5063206;28;20027;-82
2023/03/31 05:41:00;;;;;;;6.80;1.25;;;;;;;;;;5079419;28;20093;-82
2023/03/31 05:43:26;;;;;;;2.72;1.40;;;;;;;;;;5062493;28;20052;-82
2023/03/31 05:45:51;;;;;;;9.73;1.17;;;;;;;;;;5059828;28;20076;-82
2023/03/31 05:48:17;;;;;;;2.33;1.00;;;;;;;;;;5077062;28;20031;-81
2023/03/31 05:50:42;;;;;;;1.75;1.10;;;;;;;;;;5076916;28;20442;-82
2023/03/31 05:53:08;;;;;;;2.45;0.80;;;;;;;;;;5077741;28;20032;-82
2023/03/31 05:55:37;;;;;;;2.53;1.10;;;;;;;;;;5059916;28;20059;-82
2023/03/31 05:58:02;;;;;;;2.90;1.27;;;;;;;;;;5059835;28;20380;-82
2023/03/31 06:00:28;;;;;;;1.67;1.00;;;;;;;;;;5077117;28;20031;-82
2023/03/31 06:02:53;;;;;;;2.42;1.20;;;;;;;;;;5075633;28;20035;-82
2023/03/31 06:05:19;;;;;;;2.38;1.35;;;;;;;;;;5075580;28;20493;-81
2023/03/31 06:07:44;;;;;;;1.55;0.90;;;;;;;;;;5075827;28;20079;-82
2023/03/31 06:10:09;;;;;;;3.10;1.30;;;;;;;;;;5076020;28;20025;-82
2023/03/31 06:12:35;;;;;;;2.25;1.08;;;;;;;;;;5077352;28;20033;-83
2023/03/31 06:15:02;;;;;;;3.67;1.20;;;;;;;;;;5058646;28;20442;-82
2023/03/31 06:17:27;;;;;;;1.73;1.00;;;;;;;;;;5075673;28;20020;-82
2023/03/31 06:19:52;;;;;;;2.42;1.38;;;;;;;;;;5059489;28;20031;-82
2023/03/31 06:22:18;;;;;;;3.17;1.08;;;;;;;;;;5076206;28;20032;-82
2023/03/31 06:24:43;;;;;;;2.30;1.00;;;;;;;;;;5075017;28;20085;-82
2023/03/31 06:27:09;;;;;;;2.13;0.90;;;;;;;;;;5075135;28;20079;-82
2023/03/31 06:29:34;;;;;;;2.22;1.20;;;;;;;;;;5075680;28;20501;-82
2023/03/31 06:32:00;;;;;;;3.22;0.98;;;;;;;;;;5075030;28;20048;-81
2023/03/31 06:34:25;;;;;;;2.35;1.20;;;;;;;;;;5058013;28;20441;-81
2023/03/31 06:36:52;;;;;;;1.52;0.93;;;;;;;;;;5076311;28;20483;-81
2023/03/31 06:39:17;;;;;;;1.92;1.02;;;;;;;;;;5075187;28;20047;-81
2023/03/31 06:41:43;;;;;;;2.70;1.23;;;;;;;;;;5074758;28;20414;-81
2023/03/31 06:44:08;;;;;;;1.27;1.08;;;;;;;;;;5075107;28;20025;-81
2023/03/31 06:46:34;;;;;;;4.32;1.20;;;;;;;;;;5041240;28;20139;-81
2023/03/31 06:49:00;;;;;;;2.45;1.02;;;;;;;;;;5075819;28;20035;-80
2023/03/31 06:51:25;;;;;;;3.50;1.30;;;;;;;;;;5074450;28;20028;-80
2023/03/31 06:53:50;;;;;;;2.03;0.95;;;;;;;;;;5074778;28;20051;-80
2023/03/31 06:56:16;;;;;;;2.13;1.08;;;;;;;;;;5075731;28;20056;-81
2023/03/31 06:58:41;;;;;;;2.28;1.10;;;;;;;;;;5075767;28;20033;-79
2023/03/31 07:01:07;;;;;;;3.55;1.08;;;;;;;;;;5074910;28;20103;-81
2023/03/31 07:03:32;;;;;;;3.97;1.20;;;;;;;;;;5058083;28;20029;-80
2023/03/31 07:05:58;;;;;;;3.30;0.88;;;;;;;;;;5074481;28;20024;-79
2023/03/31 07:08:24;;;;;;;2.53;1.30;;;;;;;;;;5057629;28;20488;-77
2023/03/31 07:10:53;;;;;;;3.13;1.10;;;;;;;;;;5074032;28;20422;-78
2023/03/31 07:13:18;;;;;;;5.13;1.77;;;;;;;;;;5075273;28;20047;-78
2023/03/31 07:15:47;;;;;;;3.08;1.30;;;;;;;;;;5075429;28;20468;-80
2023/03/31 07:18:14;;;;;;;2.83;1.30;;;;;;;;;;5074210;28;20025;-80
2023/03/31 07:20:40;;;;;;;3.55;1.02;;;;;;;;;;5073716;28;20106;-80
2023/03/31 07:23:05;;;;;;;2.15;1.00;;;;;;;;;;5073696;28;20471;-81
2023/03/31 07:25:31;;;;;;;4.40;1.38;;;;;;;;;;5073951;28;20431;-80
2023/03/31 07:27:56;;;;;;;3.88;1.00;;;;;;;;;;5073917;28;20533;-81
2023/03/31 07:30:23;;;;;;;4.13;1.30;;;;;;;;;;5074162;28;20443;-81
2023/03/31 07:32:49;;;;;;;2.40;1.08;;;;;;;;;;5073695;28;20024;-80
2023/03/31 07:35:15;;;;;;;5.20;1.20;;;;;;;;;;5073797;28;20028;-81
2023/03/31 07:37:43;;;;;;;1.95;1.00;;;;;;;;;;5056867;28;20036;-81
2023/03/31 07:40:11;;;;;;;4.32;1.40;;;;;;;;;;5056959;28;20024;-82
2023/03/31 07:42:37;;;;;;;4.32;1.50;;;;;;;;;;5075111;28;20108;-80
2023/03/31 07:45:04;;;;;;;3.42;1.88;;;;;;;;;;5073701;28;20364;-80
2023/03/31 07:47:31;;;;;;;5.85;1.30;;;;;;;;;;5073130;28;20040;-80
2023/03/31 07:49:56;;;;;;;4.88;1.42;;;;;;;;;;5075941;28;20482;-81
2023/03/31 07:52:22;;;;;;;3.72;1.15;;;;;;;;;;5073370;28;20033;-79
2023/03/31 07:54:48;;;;;;;3.08;0.95;;;;;;;;;;5074744;28;20020;-82
2023/03/31 07:57:15;;;;;;;1.88;1.23;;;;;;;;;;5041026;28;20029;-83
2023/03/31 07:59:41;;;;;;;4.75;1.30;;;;;;;;;;5073449;28;20038;-83
2023/03/31 08:02:06;;;;;;;5.00;1.13;;;;;;;;;;5073659;28;20033;-84
2023/03/31 08:04:31;;;;;;;1.77;1.00;;;;;;;;;;5040086;28;20107;-80
2023/03/31 08:06:57;;;;;;;5.32;1.40;;;;;;;;;;5056925;28;20035;-79
2023/03/31 08:09:22;;;;;;;3.47;1.50;;;;;;;;;;5074561;28;20028;-81
2023/03/31 08:11:48;;;;;;;7.40;2.15;;;;;;;;;;5056457;28;20058;-81
2023/03/31 08:14:13;;;;;;;8.95;1.85;;;;;;;;;;5056260;28;20035;-81
2023/03/31 08:16:39;;;;;;;6.70;2.30;;;;;;;;;;5074682;28;20025;-79
2023/03/31 08:19:04;;;;;;;9.40;2.13;;;;;;;;;;5056126;28;20115;-79
2023/03/31 08:21:30;;;;;;;6.30;2.20;;;;;;;;;;5072664;28;20059;-78
2023/03/31 08:23:56;;;;;;;7.70;2.60;;;;;;;;;;5056231;28;20475;-79
2023/03/31 08:26:24;;;;;;;6.55;2.22;;;;;;;;;;5056114;28;20040;-79
2023/03/31 08:28:50;;;;;;;11.88;1.80;;;;;;;;;;5056650;28;20059;-79
2023/03/31 08:31:17;;;;;;;7.07;2.30;;;;;;;;;;5052386;28;20024;-79
2023/03/31 08:33:43;;;;;;;9.93;2.58;;;;;;;;;;5074663;28;20020;-79
2023/03/31 08:36:09;;;;;;;6.18;1.85;;;;;;;;;;5042567;28;20028;-77
2023/03/31 08:38:46;;;;;;;6.47;1.75;;;;;;;;;;5058905;28;20457;-77
2023/03/31 08:41:34;;;;;;;6.80;1.80;;;;;;;;;;5056119;28;20035;-76
2023/03/31 08:44:03;;;;;;;5.30;1.80;;;;;;;;;;5073330;28;20028;-78
2023/03/31 08:46:29;;;;;;;8.23;2.22;;;;;;;;;;5058410;28;20044;-77
2023/03/31 08:48:56;;;;;;;52.92;4.70;;;;;;;;;;5075336;28;20071;-82
2023/03/31 08:51:28;;;;;;;13.50;2.83;;;;;;;;;;5075619;28;20028;-79
2023/03/31 08:53:57;;;;;;;14.02;2.88;;;;;;;;;;5075547;28;20028;-84
2023/03/31 08:56:25;;;;;;;6.32;2.15;;;;;;;;;;5058676;28;20042;-82
2023/03/31 08:58:51;;;;;;;12.32;3.50;;;;;;;;;;5092884;28;20035;-83
2023/03/31 09:01:57;;;;;;;13.93;2.40;;;;;;;;;;5093154;28;20032;-84
2023/03/31 09:04:31;;;;;;;13.95;2.33;;;;;;;;;;5038099;28;20050;-84
2023/03/31 09:07:23;;;;;;;10.23;2.28;;;;;;;;;;5093382;28;20024;-83
2023/03/31 09:10:10;;;;;;;17.95;2.53;;;;;;;;;;5075501;28;20028;-84
2023/03/31 09:12:48;;;;;;;15.18;2.10;;;;;;;;;;5093805;28;20020;-83
2023/03/31 09:15:21;;;;;;;10.00;2.17;;;;;;;;;;5093455;28;20055;-83
2023/03/31 09:17:50;;;;;;;10.40;2.45;;;;;;;;;;5058608;28;20032;-83
2023/03/31 09:20:28;;;;;;;6.90;2.08;;;;;;;;;;5075787;28;20542;-82
2023/03/31 09:23:17;;;;;;;6.75;2.03;;;;;;;;;;5076178;28;20074;-82
2023/03/31 09:25:43;;;;;;;12.88;2.00;;;;;;;;;;5076767;28;20028;-80
2023/03/31 09:28:20;;;;;;;3.70;2.08;;;;;;;;;;5059387;28;20032;-81
2023/03/31 09:30:50;;;;;;;8.77;2.05;;;;;;;;;;5074931;28;20455;-82
2023/03/31 09:33:30;;;;;;;7.07;1.90;;;;;;;;;;5093580;28;20024;-80
2023/03/31 09:36:04;;;;;;;4.93;1.58;;;;;;;;;;5059442;28;20020;-82
2023/03/31 09:38:30;;;;;;;6.90;1.80;;;;;;;;;;5077029;28;20063;-81
2023/03/31 09:41:00;;;;;;;3.25;1.60;;;;;;;;;;5075643;28;20119;-82
2023/03/31 09:43:28;;;;;;;4.47;1.85;;;;;;;;;;5058905;28;20032;-81
2023/03/31 09:45:54;;;;;;;6.95;2.22;;;;;;;;;;5058533;28;20044;-82
2023/03/31 09:48:24;;;;;;;6.70;1.70;;;;;;;;;;5093439;28;20111;-81
2023/03/31 09:50:54;;;;;;;6.82;2.13;;;;;;;;;;5058345;28;20062;-82
2023/03/31 09:53:51;;;;;;;6.05;1.90;;;;;;;;;;5058667;28;20169;-83
2023/03/31 09:56:35;;;;;;;6.75;1.70;;;;;;;;;;5083095;28;20032;-82
2023/03/31 09:59:02;;;;;;;7.28;2.00;;;;;;;;;;5092990;28;20024;-81
2023/03/31 10:01:28;;;;;;;5.28;1.88;;;;;;;;;;5093298;28;20028;-82
2023/03/31 10:03:54;;;;;;;9.88;1.90;;;;;;;;;;5058580;28;20122;-82
2023/03/31 10:06:21;;;;;;;6.72;2.10;;;;;;;;;;5041976;28;20165;-82
2023/03/31 10:08:53;;;;;;;7.15;2.60;;;;;;;;;;5058458;28;20043;-81
2023/03/31 10:11:19;;;;;;;5.75;2.00;;;;;;;;;;5096577;28;20063;-79
2023/03/31 10:14:12;;;;;;;4.25;2.00;;;;;;;;;;5078772;28;20412;-80
2023/03/31 10:16:54;;;;;;;4.03;1.63;;;;;;;;;;5062377;28;20482;-82
2023/03/31 10:19:21;;;;;;;4.63;2.20;;;;;;;;;;5078698;28;20398;-82
2023/03/31 10:21:54;;;;;;;4.43;2.20;;;;;;;;;;5078787;28;20044;-82
2023/03/31 10:24:19;;;;;;;5.90;2.33;;;;;;;;;;5096997;28;20126;-82
2023/03/31 10:26:51;;;;;;;10.43;2.05;;;;;;;;;;5079052;28;20032;-81
2023/03/31 10:29:24;;;;;;;9.38;2.50;;;;;;;;;;5078820;28;20055;-83
2023/03/31 10:31:50;;;;;;;7.63;2.35;;;;;;;;;;5079205;28;20058;-81
2023/03/31 10:34:16;;;;;;;7.82;2.42;;;;;;;;;;5045040;28;20035;-80
2023/03/31 10:36:46;;;;;;;12.27;2.35;;;;;;;;;;5078490;28;20367;-80
2023/03/31 10:39:15;;;;;;;9.60;2.15;;;;;;;;;;5078579;28;20363;-80
2023/03/31 10:41:40;;;;;;;9.40;2.10;;;;;;;;;;5096486;28;20028;-80
2023/03/31 10:44:10;;;;;;;7.10;2.00;;;;;;;;;;5061359;28;20490;-80
2023/03/31 10:46:39;;;;;;;13.10;3.13;;;;;;;;;;5061165;28;20052;-81
2023/03/31 10:49:16;;;;;;;7.63;2.67;;;;;;;;;;5078604;28;20106;-81
2023/03/31 10:51:51;;;;;;;7.35;2.58;;;;;;;;;;5096254;28;20107;-80
2023/03/31 10:54:17;;;;;;;6.45;1.88;;;;;;;;;;5096113;28;20031;-80
2023/03/31 10:56:48;;;;;;;7.40;2.10;;;;;;;;;;5077699;28;20074;-82
2023/03/31 10:59:38;;;;;;;5.38;2.15;;;;;;;;;;5077655;28;20023;-80
2023/03/31 11:02:21;;;;;;;12.93;2.28;;;;;;;;;;5077618;28;20028;-83
2023/03/31 11:04:56;;;;;;;6.13;2.15;;;;;;;;;;5077730;28;20073;-81
2023/03/31 11:07:48;;;;;;;7.75;2.10;;;;;;;;;;5095858;28;20032;-80
2023/03/31 11:10:32;;;;;;;11.52;2.25;;;;;;;;;;5095642;28;20022;-81
2023/03/31 11:13:05;;;;;;;6.93;2.03;;;;;;;;;;5095612;28;20040;-81
2023/03/31 11:16:07;;;;;;;9.37;2.40;;;;;;;;;;5077217;28;20028;-80
2023/03/31 11:18:52;;;;;;;8.38;2.80;;;;;;;;;;5077351;28;20023;-80
2023/03/31 11:21:25;;;;;;;;;;;;;;;;;;5077864;28;20028;-77
2023/03/31 11:23:56;;;;;;;6.40;2.00;;;;;;;;;;5078743;28;19961;-80
2023/03/31 11:26:55;;;;;;;7.25;2.75;;;;;;;;;;5097204;28;20073;-80
2023/03/31 11:30:05;;;;;;;10.20;2.40;;;;;;;;;;5078465;28;20016;-80
2023/03/31 11:33:07;;;;;;;8.68;2.53;;;;;;;;;;5074631;28;20036;-80
2023/03/31 11:35:49;;;;;;;8.77;2.40;;;;;;;;;;5094141;28;20107;-80
2023/03/31 11:38:32;;;;;;;10.70;2.60;;;;;;;;;;5095078;28;20573;-80
2023/03/31 11:41:30;;;;;;;11.27;2.38;;;;;;;;;;5076833;28;20116;-81
2023/03/31 11:44:10;;;;;;;7.45;2.30;;;;;;;;;;5076924;28;20020;-77
2023/03/31 11:46:49;;;;;;;9.55;2.30;;;;;;;;;;5077044;28;20043;-77
2023/03/31 11:49:20;;;;;;;8.98;2.17;;;;;;;;;;5059700;28;20063;-80
2023/03/31 11:51:57;;;;;;;5.68;1.98;;;;;;;;;;5060056;28;20506;-80
2023/03/31 11:54:25;;;;;;;9.70;2.22;;;;;;;;;;5093999;28;20107;-81
2023/03/31 11:56:52;;;;;;;8.15;2.42;;;;;;;;;;5075750;28;20051;-82
2023/03/31 11:59:19;;;;;;;7.20;2.42;;;;;;;;;;5075860;28;20110;-80
2023/03/31 12:02:28;;;;;;;8.07;2.30;;;;;;;;;;5059122;28;20084;-81
2023/03/31 12:04:55;;;;;;;7.72;2.55;;;;;;;;;;5076584;28;20028;-80
2023/03/31 12:08:05;;;;;;;4.40;1.88;;;;;;;;;;5076095;28;20024;-80
2023/03/31 12:10:34;;;;;;;7.10;2.08;;;;;;;;;;4992265;28;20071;-80
2023/03/31 12:13:27;;;;;;;6.22;2.10;;;;;;;;;;4960461;28;20022;-80
2023/03/31 12:16:16;;;;;;;6.25;1.80;;;;;;;;;;5060241;28;20047;-80
2023/03/31 12:18:48;;;;;;;6.82;2.08;;;;;;;;;;5058702;28;20028;-80
2023/03/31 12:21:14;;;;;;;4.28;2.22;;;;;;;;;;5093837;28;20024;-82
2023/03/31 12:23:43;;;;;;;5.18;1.92;;;;;;;;;;5075465;28;20028;-81
2023/03/31 12:26:23;;;;;;;4.60;1.85;;;;;;;;;;5054785;28;20111;-81
2023/03/31 12:28:52;;;;;;;5.53;2.13;;;;;;;;;;5071360;28;20097;-81
2023/03/31 12:31:20;;;;;;;8.43;2.45;;;;;;;;;;5072578;28;20024;-79
2023/03/31 12:33:54;;;;;;;10.23;2.25;;;;;;;;;;5091090;28;20382;-78
2023/03/31 12:36:31;;;;;;;11.63;2.00;;;;;;;;;;5072633;28;20470;-80
2023/03/31 12:39:22;;;;;;;6.50;1.92;;;;;;;;;;5059078;28;20097;-79
2023/03/31 12:42:18;;;;;;;5.22;2.22;;;;;;;;;;5059377;28;20035;-80
2023/03/31 12:45:05;;;;;;;5.55;1.80;;;;;;;;;;5075322;28;20028;-79
2023/03/31 12:47:52;;;;;;;8.27;2.38;;;;;;;;;;5058539;28;20151;-78
2023/03/31 12:50:35;;;;;;;8.10;2.30;;;;;;;;;;5093779;28;20107;-78
2023/03/31 12:53:19;;;;;;;6.70;2.03;;;;;;;;;;5058416;28;20035;-79
2023/03/31 12:55:46;;;;;;;11.48;2.50;;;;;;;;;;5094500;28;20471;-78
2023/03/31 12:58:21;;;;;;;5.75;2.05;;;;;;;;;;5077112;28;20463;-79
2023/03/31 13:01:13;;;;;;;8.23;2.05;;;;;;;;;;5094362;28;20382;-78
2023/03/31 13:03:47;;;;;;;12.95;3.00;;;;;;;;;;5058887;28;20038;-79
2023/03/31 13:06:28;;;;;;;5.47;2.05;;;;;;;;;;5075867;28;20031;-78
2023/03/31 13:09:22;;;;;;;5.63;2.17;;;;;;;;;;5074901;28;20024;-78
2023/03/31 13:11:47;;;;;;;11.70;2.25;;;;;;;;;;5074720;28;20032;-79
2023/03/31 13:14:23;;;;;;;6.80;2.13;;;;;;;;;;5075484;28;20473;-79
2023/03/31 13:16:49;;;;;;;7.70;1.67;;;;;;;;;;5074561;28;20020;-78
2023/03/31 13:19:46;;;;;;;5.82;1.75;;;;;;;;;;5087838;28;20032;-79
2023/03/31 13:22:30;;;;;;;6.13;2.00;;;;;;;;;;5051606;28;20478;-82
2023/03/31 13:25:33;;;;;;;9.52;2.10;;;;;;;;;;5069822;28;20040;-81
2023/03/31 13:28:26;;;;;;;10.70;1.90;;;;;;;;;;5081473;28;20043;-81
2023/03/31 13:31:05;;;;;;;6.03;1.90;;;;;;;;;;5054240;28;20480;-81
2023/03/31 13:33:56;;;;;;;9.55;2.55;;;;;;;;;;5049691;28;20039;-82
2023/03/31 13:36:30;;;;;;;7.90;2.03;;;;;;;;;;5051075;28;20135;-82
2023/03/31 13:39:33;;;;;;;7.22;2.30;;;;;;;;;;5051175;28;20537;-82
2023/03/31 13:42:29;;;;;;;8.73;2.22;;;;;;;;;;5047212;28;20071;-81
2023/03/31 13:44:59;;;;;;;9.57;2.50;;;;;;;;;;5051463;28;20119;-81
2023/03/31 13:48:02;;;;;;;7.32;2.17;;;;;;;;;;5054760;28;20177;-81
2023/03/31 13:50:52;;;;;;;6.32;1.98;;;;;;;;;;5072367;28;20083;-82
2023/03/31 13:53:53;;;;;;;10.80;2.38;;;;;;;;;;5039924;28;20368;-81
2023/03/31 13:56:30;;;;;;;10.30;2.72;;;;;;;;;;5055272;28;20094;-82
2023/03/31 13:58:58;;;;;;;7.70;1.77;;;;;;;;;;5055725;28;20429;-82
2023/03/31 14:01:45;;;;;;;7.70;2.17;;;;;;;;;;5055033;28;20024;-82
2023/03/31 14:04:22;;;;;;;6.57;1.70;;;;;;;;;;5037212;28;20024;-81
2023/03/31 14:06:53;;;;;;;5.53;1.65;;;;;;;;;;5053670;28;20408;-81
2023/03/31 14:09:33;;;;;;;5.43;1.83;;;;;;;;;;5052858;28;20482;-81
2023/03/31 14:11:59;;;;;;;4.65;1.73;;;;;;;;;;5058063;28;20494;-82
2023/03/31 14:14:25;;;;;;;6.22;2.08;;;;;;;;;;5058181;28;20514;-82
2023/03/31 14:16:53;;;;;;;4.18;1.70;;;;;;;;;;5076450;28;20475;-81
2023/03/31 14:19:58;;;;;;;4.82;1.70;;;;;;;;;;5076042;28;20020;-82
2023/03/31 14:23:06;;;;;;;8.73;2.17;;;;;;;;;;5075750;28;20048;-82
2023/03/31 14:25:39;;;;;;;4.90;1.85;;;;;;;;;;5020796;28;20040;-80
2023/03/31 14:28:46;;;;;;;6.68;1.75;;;;;;;;;;5053080;28;20024;-78
2023/03/31 14:31:22;;;;;;;4.70;1.70;;;;;;;;;;5053142;28;20036;-80
2023/03/31 14:33:57;;;;;;;4.43;2.10;;;;;;;;;;5035827;28;20162;-80
2023/03/31 14:36:37;;;;;;;6.63;1.98;;;;;;;;;;5052745;28;20335;-80
2023/03/31 14:39:06;;;;;;;6.97;2.45;;;;;;;;;;5070848;28;20056;-80
2023/03/31 14:41:31;;;;;;;3.70;1.70;;;;;;;;;;5037062;28;20309;-80
2023/03/31 14:44:00;;;;;;;11.90;1.80;;;;;;;;;;5053509;28;20492;-80
2023/03/31 14:46:30;;;;;;;5.97;1.80;;;;;;;;;;5052511;28;20378;-80
2023/03/31 14:48:56;;;;;;;3.20;1.70;;;;;;;;;;5035740;28;20245;-80
2023/03/31 14:51:29;;;;;;;5.07;1.60;;;;;;;;;;5055874;28;20131;-80
2023/03/31 14:53:59;;;;;;;4.13;1.50;;;;;;;;;;5057094;28;20024;-80
2023/03/31 14:56:36;;;;;;;4.43;1.92;;;;;;;;;;5055801;28;20458;-79
2023/03/31 14:59:02;;;;;;;7.03;1.75;;;;;;;;;;5058202;28;20043;-80
2023/03/31 15:01:33;;;;;;;4.18;1.40;;;;;;;;;;5056918;28;20028;-79
2023/03/31 15:03:59;;;;;;;7.80;1.50;;;;;;;;;;5040526;28;20041;-80
2023/03/31 15:06:25;;;;;;;4.15;1.65;;;;;;;;;;5056799;28;20032;-80
2023/03/31 15:08:55;;;;;;;5.43;1.48;;;;;;;;;;5057140;28;20380;-80
2023/03/31 15:11:20;;;;;;;4.63;1.40;;;;;;;;;;5056857;28;20119;-80
2023/03/31 15:13:55;;;;;;;8.43;1.70;;;;;;;;;;5075497;28;20550;-80
2023/03/31 15:16:43;;;;;;;3.42;1.55;;;;;;;;;;5075765;28;20039;-80
2023/03/31 15:19:23;;;;;;;3.85;1.27;;;;;;;;;;5075980;28;20024;-80